Pagrindinis puslapis
METAR-TAF:

METAR-TAF

Oro uostai :

Ivalo, Suomija

platuma: 68-37N, ilguma: 027-25E, Aukštis: 147 m

Dabartinis oras

Ataskaita buvo paskelbta 31 minutes, ne 14:20 UTC
Vėjas 6 kt iš Pietvakarių
Temperatūra -5°C
Drėgmė 86%
Slėgis 1010 hPa
Matomumas 10 km arba daugiau
nėra debesų žemiau 1500 m ir nėra kamuolinių lietaus debesų

METAR: EFIV 231420Z AUTO 22006KT CAVOK M05/M07 Q1010

Laikas: 17:51 (14:51 UTC)

Prognozė

Ataskaita buvo paskelbta 9 valandos ir 25 minutes, ne 05:26 UTC
Prognozė galioja nuo 23 metu 06 UTC su 23 metu 10 UTC
Vėjas 2 kt iš Pietvakarių
Matomumas 10 km arba daugiau
nėra debesų žemiau 1500 m ir nėra kamuolinių lietaus debesų

TAF: EFIV 230526Z 2306/2310 23002KT CAVOK

Orai ataskaitas ir orų prognozės (METAR, TAF).

turimą stotys yra geltonos ir raudonos taškus žemėlapyje.

Perkelti pele per norėdami pamatyti stoties vardą.

Tada spustelėkite, norėdami matyti oro stebėjimo ir prognozės.

Norėdami pakeisti žemėlapį: spustelėkite ant žalios mygtukų su juodo kryžiaus žemyn,; žalią mygtuką su brūkšneliu, jei norite nutolinti; arba žalių rodyklių gretimoms žemėlapius.


METAR-TAF: